Time;durP1;ratioP1;P1;durP2;ratioP2;P2;SDS_P1;SDS_P2;PMS_P1;PMS_P2;Temp;Humidity;BMP_temperature;BMP_pressure;BME280_temperature;BME280_humidity;BME280_pressure;Samples;Min_cycle;Max_cycle;Signal;HPM_P1;HPM_P2
2023/06/05 00:00:09;;;;;;;2.95;1.73;;;12.60;99.90;;;;;;4994885;28;20052;-73
2023/06/05 00:02:35;;;;;;;6.28;1.42;;;12.50;99.90;;;;;;4997812;28;20040;-72
2023/06/05 00:05:01;;;;;;;7.68;1.58;;;12.50;99.90;;;;;;4996983;28;20049;-71
2023/06/05 00:07:27;;;;;;;5.60;1.77;;;12.50;99.90;;;;;;4994188;28;20487;-70
2023/06/05 00:09:52;;;;;;;4.55;1.98;;;12.50;99.90;;;;;;4995654;28;20030;-71
2023/06/05 00:12:18;;;;;;;2.60;1.50;;;12.50;99.90;;;;;;5001467;28;20144;-72
2023/06/05 00:14:44;;;;;;;4.75;1.70;;;12.40;99.90;;;;;;4999243;28;20672;-71
2023/06/05 00:17:09;;;;;;;2.92;1.70;;;12.40;99.90;;;;;;5024649;28;20034;-71
2023/06/05 00:19:35;;;;;;;6.15;2.00;;;12.40;99.90;;;;;;4994304;28;20064;-71
2023/06/05 00:22:01;;;;;;;4.20;1.60;;;12.40;99.90;;;;;;4996714;28;20088;-70
2023/06/05 00:24:26;;;;;;;3.35;1.67;;;12.30;99.90;;;;;;4997496;28;20470;-73
2023/06/05 00:26:53;;;;;;;4.95;1.77;;;12.30;99.90;;;;;;4996325;28;20037;-72
2023/06/05 00:29:18;;;;;;;5.80;1.80;;;12.30;99.90;;;;;;4993811;28;20034;-71
2023/06/05 00:31:48;;;;;;;6.57;2.05;;;12.30;99.90;;;;;;4994121;28;20041;-71
2023/06/05 00:34:14;;;;;;;2.77;1.40;;;12.30;99.90;;;;;;5000085;28;20049;-71
2023/06/05 00:36:41;;;;;;;2.88;1.38;;;12.30;99.90;;;;;;4994462;28;20064;-71
2023/06/05 00:39:07;;;;;;;4.70;1.80;;;12.20;99.90;;;;;;5000532;28;20121;-71
2023/06/05 00:41:32;;;;;;;4.25;2.33;;;12.20;99.90;;;;;;4993185;28;20125;-71
2023/06/05 00:43:58;;;;;;;4.28;1.80;;;12.20;99.90;;;;;;4995943;28;20050;-72
2023/06/05 00:46:27;;;;;;;5.10;1.88;;;12.20;99.90;;;;;;4996723;28;20101;-72
2023/06/05 00:48:52;;;;;;;9.25;2.03;;;12.20;99.90;;;;;;4996901;28;20037;-72
2023/06/05 00:51:18;;;;;;;5.30;2.10;;;12.10;99.90;;;;;;4994790;28;20113;-70
2023/06/05 00:53:46;;;;;;;4.65;2.15;;;12.00;99.90;;;;;;5001711;28;20038;-72
2023/06/05 00:56:12;;;;;;;4.25;2.20;;;12.10;99.90;;;;;;4995216;28;20033;-72
2023/06/05 00:58:38;;;;;;;3.35;1.80;;;12.00;99.90;;;;;;4997449;28;20041;-72
2023/06/05 01:01:05;;;;;;;6.25;2.00;;;12.00;99.90;;;;;;4993688;28;20050;-74
2023/06/05 01:03:33;;;;;;;4.53;1.67;;;12.00;99.90;;;;;;4995144;28;20487;-71
2023/06/05 01:06:03;;;;;;;4.68;2.05;;;12.00;99.90;;;;;;4995994;28;20389;-70
2023/06/05 01:08:30;;;;;;;4.28;2.05;;;12.00;99.90;;;;;;4993793;28;20490;-71
2023/06/05 01:11:02;;;;;;;4.18;1.80;;;12.00;99.90;;;;;;4995499;28;20121;-71
2023/06/05 01:13:31;;;;;;;6.68;2.28;;;11.90;99.90;;;;;;4996474;28;21199;-71
2023/06/05 01:15:58;;;;;;;4.57;1.90;;;11.90;99.90;;;;;;5027927;28;20091;-72
2023/06/05 01:18:24;;;;;;;5.65;2.00;;;11.90;99.90;;;;;;4990386;28;20422;-72
2023/06/05 01:20:50;;;;;;;3.67;2.05;;;11.90;99.90;;;;;;4992771;28;20041;-71
2023/06/05 01:23:25;;;;;;;6.38;2.05;;;11.90;99.90;;;;;;4993445;28;20041;-71
2023/06/05 01:25:53;;;;;;;6.15;2.40;;;11.80;99.90;;;;;;4994736;28;21508;-72
2023/06/05 01:28:28;;;;;;;6.55;2.25;;;11.80;99.90;;;;;;4993059;28;20497;-71
2023/06/05 01:31:00;;;;;;;3.67;2.05;;;11.80;99.90;;;;;;4993215;28;20058;-72
2023/06/05 01:33:44;;;;;;;6.43;2.25;;;11.80;99.90;;;;;;4997038;28;20049;-72
2023/06/05 01:36:11;;;;;;;7.38;2.10;;;11.70;99.90;;;;;;4989579;28;20038;-71
2023/06/05 01:38:39;;;;;;;9.77;2.17;;;11.70;99.90;;;;;;4995873;28;20038;-71
2023/06/05 01:41:05;;;;;;;3.45;2.10;;;11.70;99.90;;;;;;4993616;28;20037;-72
2023/06/05 01:43:32;;;;;;;5.40;2.65;;;11.70;99.90;;;;;;5001934;28;20128;-73
2023/06/05 01:45:59;;;;;;;5.63;1.90;;;11.70;99.90;;;;;;4996805;28;20037;-71
2023/06/05 01:48:30;;;;;;;7.88;2.58;;;11.60;99.90;;;;;;4992845;28;20045;-71
2023/06/05 01:50:58;;;;;;;6.32;2.35;;;11.60;99.90;;;;;;4993008;28;20079;-70
2023/06/05 01:53:24;;;;;;;6.90;2.45;;;11.60;99.90;;;;;;4996348;28;20042;-71
2023/06/05 01:55:56;;;;;;;5.00;2.28;;;11.60;99.90;;;;;;4992088;28;20092;-71
2023/06/05 01:58:26;;;;;;;4.88;2.20;;;11.50;99.90;;;;;;4996387;28;20042;-71
2023/06/05 02:00:57;;;;;;;5.10;2.30;;;11.50;99.90;;;;;;4996043;28;20103;-72
2023/06/05 02:03:29;;;;;;;4.75;2.22;;;11.50;99.90;;;;;;4990460;28;20046;-72
2023/06/05 02:06:00;;;;;;;4.63;2.65;;;11.50;99.90;;;;;;4993946;28;20034;-72
2023/06/05 02:08:29;;;;;;;5.57;2.42;;;11.40;99.90;;;;;;5001549;28;20410;-71
2023/06/05 02:11:02;;;;;;;5.13;2.08;;;11.50;99.90;;;;;;4998243;28;20038;-71
2023/06/05 02:13:33;;;;;;;7.20;2.28;;;11.40;99.90;;;;;;4999422;28;20761;-71
2023/06/05 02:16:02;;;;;;;4.82;2.33;;;11.40;99.90;;;;;;4999171;28;20228;-72
2023/06/05 02:18:30;;;;;;;8.70;2.50;;;11.40;99.90;;;;;;4996897;28;20080;-71
2023/06/05 02:21:02;;;;;;;7.53;2.33;;;11.30;99.90;;;;;;5000401;28;20407;-71
2023/06/05 02:23:27;;;;;;;6.40;2.10;;;11.30;99.90;;;;;;4995578;28;20085;-70
2023/06/05 02:25:53;;;;;;;4.88;2.70;;;11.30;99.90;;;;;;4996730;28;20038;-73
2023/06/05 02:28:21;;;;;;;7.00;2.80;;;11.30;99.90;;;;;;4998769;28;20030;-71
2023/06/05 02:30:47;;;;;;;8.35;3.40;;;11.30;99.90;;;;;;4997999;28;20516;-73
2023/06/05 02:33:16;;;;;;;4.13;2.20;;;11.30;99.90;;;;;;4998970;28;20122;-73
2023/06/05 02:35:45;;;;;;;10.75;2.22;;;11.20;99.90;;;;;;5004128;28;20041;-71
2023/06/05 02:38:12;;;;;;;10.07;2.63;;;11.20;99.90;;;;;;4994939;28;20042;-72
2023/06/05 02:40:38;;;;;;;8.48;2.47;;;11.20;99.90;;;;;;5000130;28;20566;-71
2023/06/05 02:43:05;;;;;;;4.88;2.58;;;11.20;99.90;;;;;;4998272;28;20041;-72
2023/06/05 02:45:33;;;;;;;7.00;2.72;;;11.20;99.90;;;;;;4997278;28;20038;-72
2023/06/05 02:47:59;;;;;;;8.40;3.17;;;11.10;99.90;;;;;;4998598;28;20030;-71
2023/06/05 02:50:24;;;;;;;9.27;2.78;;;11.10;99.90;;;;;;4995557;28;20096;-71
2023/06/05 02:52:50;;;;;;;4.97;2.42;;;11.10;99.90;;;;;;4997590;28;20040;-71
2023/06/05 02:55:17;;;;;;;5.13;2.42;;;11.10;99.90;;;;;;4996948;28;20101;-72
2023/06/05 02:57:42;;;;;;;8.25;3.15;;;11.10;99.90;;;;;;4999166;28;20558;-72
2023/06/05 03:00:09;;;;;;;4.35;2.47;;;11.10;99.90;;;;;;4998331;28;20108;-71
2023/06/05 03:02:41;;;;;;;8.05;3.10;;;11.00;99.90;;;;;;5029483;28;20034;-71
2023/06/05 03:05:07;;;;;;;5.07;2.40;;;11.00;99.90;;;;;;4995225;28;20030;-71
2023/06/05 03:07:34;;;;;;;6.05;2.47;;;11.00;99.90;;;;;;4997516;28;20030;-71
2023/06/05 03:10:01;;;;;;;7.75;3.22;;;11.00;99.90;;;;;;5001440;28;20022;-71
2023/06/05 03:12:26;;;;;;;7.88;3.08;;;11.00;99.90;;;;;;4999197;28;20039;-71
2023/06/05 03:14:58;;;;;;;5.63;2.60;;;10.90;99.90;;;;;;4998336;28;20072;-70
2023/06/05 03:17:24;;;;;;;4.38;2.28;;;10.90;99.90;;;;;;4998276;28;20034;-71
2023/06/05 03:19:50;;;;;;;8.75;2.60;;;11.00;99.90;;;;;;4997382;28;20037;-71
2023/06/05 03:22:22;;;;;;;12.60;3.25;;;10.90;99.90;;;;;;4994789;28;20034;-71
2023/06/05 03:24:47;;;;;;;5.38;2.78;;;10.90;99.90;;;;;;4998594;28;20041;-72
2023/06/05 03:27:19;;;;;;;7.38;3.33;;;10.90;99.90;;;;;;4998485;28;20026;-71
2023/06/05 03:29:53;;;;;;;6.60;2.38;;;10.90;99.90;;;;;;4995525;28;20027;-72
2023/06/05 03:32:19;;;;;;;10.85;3.17;;;10.90;99.90;;;;;;4999693;28;20033;-72
2023/06/05 03:34:50;;;;;;;7.20;3.38;;;10.90;99.90;;;;;;5005068;28;20125;-71
2023/06/05 03:37:16;;;;;;;5.60;2.95;;;10.90;99.90;;;;;;5001444;28;20037;-73
2023/06/05 03:39:42;;;;;;;7.85;2.97;;;10.90;99.90;;;;;;4997769;28;20040;-72
2023/06/05 03:42:09;;;;;;;8.40;2.80;;;10.90;99.90;;;;;;4995644;28;20125;-71
2023/06/05 03:44:37;;;;;;;6.57;2.90;;;10.90;99.90;;;;;;4998192;28;20037;-71
2023/06/05 03:47:07;;;;;;;7.10;2.95;;;11.00;99.90;;;;;;5001779;28;20038;-72
2023/06/05 03:49:33;;;;;;;9.13;3.35;;;10.90;99.90;;;;;;4997249;28;20033;-73
2023/06/05 03:52:02;;;;;;;8.85;2.90;;;10.90;99.90;;;;;;4994981;28;20029;-71
2023/06/05 03:54:33;;;;;;;10.73;4.00;;;10.90;99.90;;;;;;4998540;28;20041;-71
2023/06/05 03:57:00;;;;;;;5.28;2.83;;;10.90;99.90;;;;;;4998482;28;20038;-71
2023/06/05 03:59:29;;;;;;;8.38;2.53;;;10.90;99.90;;;;;;4993172;28;20038;-71
2023/06/05 04:01:56;;;;;;;7.10;2.85;;;11.00;99.90;;;;;;4993842;28;20034;-71
2023/06/05 04:04:25;;;;;;;9.55;2.58;;;11.00;99.90;;;;;;4997640;28;20141;-70
2023/06/05 04:06:53;;;;;;;6.25;2.63;;;11.00;99.90;;;;;;4995163;28;20405;-71
2023/06/05 04:09:22;;;;;;;7.25;3.22;;;11.00;99.90;;;;;;4998693;28;20462;-71
2023/06/05 04:11:49;;;;;;;7.60;2.65;;;11.00;99.90;;;;;;4997908;28;20038;-71
2023/06/05 04:14:15;;;;;;;8.40;3.30;;;11.10;99.90;;;;;;4996154;28;20030;-71
2023/06/05 04:16:43;;;;;;;9.07;3.00;;;11.10;99.90;;;;;;4996991;28;20406;-71
2023/06/05 04:19:11;;;;;;;7.78;2.78;;;11.10;99.90;;;;;;5000453;28;20486;-73
2023/06/05 04:21:40;;;;;;;6.47;2.67;;;11.10;99.90;;;;;;4996444;28;20100;-73
2023/06/05 04:24:08;;;;;;;5.10;2.65;;;11.10;99.90;;;;;;4996967;28;20045;-72
2023/06/05 04:26:35;;;;;;;5.47;2.78;;;11.10;99.90;;;;;;4998746;28;20038;-71
2023/06/05 04:29:02;;;;;;;5.40;2.80;;;11.20;99.90;;;;;;4998960;28;20069;-71
2023/06/05 04:31:30;;;;;;;9.57;3.28;;;11.20;99.90;;;;;;4996625;28;20731;-71
2023/06/05 04:33:56;;;;;;;9.30;2.83;;;11.20;99.90;;;;;;5001044;28;20029;-70
2023/06/05 04:36:22;;;;;;;9.73;2.95;;;11.30;99.90;;;;;;4996160;28;20043;-71
2023/06/05 04:38:47;;;;;;;5.57;2.50;;;11.30;99.90;;;;;;4997909;28;20034;-70
2023/06/05 04:41:13;;;;;;;7.15;2.50;;;11.30;99.90;;;;;;5001281;28;20566;-71
2023/06/05 04:43:39;;;;;;;4.95;2.50;;;11.30;99.90;;;;;;5002956;28;20033;-73
2023/06/05 04:46:05;;;;;;;7.25;2.80;;;11.30;99.90;;;;;;5005205;28;20112;-73
2023/06/05 04:48:30;;;;;;;5.75;2.50;;;11.40;99.90;;;;;;5002975;28;20117;-71
2023/06/05 04:50:57;;;;;;;8.07;2.63;;;11.40;99.90;;;;;;4991404;28;20142;-73
2023/06/05 04:53:23;;;;;;;5.75;2.80;;;11.40;99.90;;;;;;4991897;28;20108;-73
2023/06/05 04:55:49;;;;;;;7.53;2.80;;;11.40;99.90;;;;;;4997799;28;20037;-71
2023/06/05 04:58:21;;;;;;;6.78;3.10;;;11.50;99.90;;;;;;4994509;28;20038;-71
2023/06/05 05:00:48;;;;;;;6.28;2.97;;;11.50;99.90;;;;;;4995791;28;20574;-71
2023/06/05 05:03:16;;;;;;;9.45;2.88;;;11.60;99.90;;;;;;5000953;28;20022;-71
2023/06/05 05:05:41;;;;;;;6.80;2.80;;;11.60;99.90;;;;;;4995826;28;20116;-71
2023/06/05 05:08:07;;;;;;;8.43;3.17;;;11.60;99.90;;;;;;5002344;28;20034;-70
2023/06/05 05:10:32;;;;;;;5.32;2.67;;;11.70;99.90;;;;;;5001350;28;20513;-72
2023/06/05 05:13:01;;;;;;;7.53;2.17;;;11.70;99.90;;;;;;5001493;28;20033;-72
2023/06/05 05:15:29;;;;;;;6.82;3.15;;;11.70;99.90;;;;;;5001980;28;20048;-73
2023/06/05 05:17:56;;;;;;;8.85;2.85;;;11.80;99.90;;;;;;5003241;28;20105;-72
2023/06/05 05:20:22;;;;;;;11.55;2.75;;;11.90;99.90;;;;;;5001715;28;20129;-71
2023/06/05 05:22:48;;;;;;;8.55;2.30;;;11.90;99.90;;;;;;5003241;28;20141;-71
2023/06/05 05:25:13;;;;;;;17.10;3.00;;;12.00;99.90;;;;;;5004320;28;20033;-70
2023/06/05 05:27:39;;;;;;;7.13;2.33;;;12.10;99.90;;;;;;4999041;28;20367;-71
2023/06/05 05:30:07;;;;;;;3.95;2.45;;;12.20;99.90;;;;;;5004074;28;20029;-71
2023/06/05 05:32:32;;;;;;;8.63;3.10;;;12.20;99.90;;;;;;5002412;28;20049;-72
2023/06/05 05:34:58;;;;;;;5.68;2.38;;;12.30;99.90;;;;;;5002850;28;20037;-71
2023/06/05 05:37:25;;;;;;;10.90;3.80;;;12.40;99.90;;;;;;4998606;28;20054;-72
2023/06/05 05:39:51;;;;;;;6.63;2.85;;;12.60;99.90;;;;;;5000801;28;20100;-72
2023/06/05 05:42:19;;;;;;;6.20;2.50;;;12.90;99.90;;;;;;5002223;28;20699;-71
2023/06/05 05:44:45;;;;;;;5.18;2.05;;;13.20;99.90;;;;;;5001316;28;20080;-70
2023/06/05 05:47:11;;;;;;;7.13;2.20;;;13.40;99.90;;;;;;5004040;28;20095;-71
2023/06/05 05:49:37;;;;;;;6.65;2.10;;;13.70;99.90;;;;;;5002433;28;20056;-71
2023/06/05 05:52:03;;;;;;;6.78;2.53;;;14.00;99.90;;;;;;5002768;28;20058;-71
2023/06/05 05:54:28;;;;;;;5.13;2.40;;;14.30;99.90;;;;;;5001978;28;20046;-71
2023/06/05 05:56:54;;;;;;;7.43;2.53;;;14.60;99.90;;;;;;4999015;28;20149;-73
2023/06/05 05:59:21;;;;;;;7.32;2.40;;;14.60;99.90;;;;;;5002589;28;20034;-73
2023/06/05 06:01:48;;;;;;;4.30;2.10;;;14.70;99.90;;;;;;4997699;28;20041;-70
2023/06/05 06:04:16;;;;;;;6.55;2.88;;;14.80;99.90;;;;;;4999606;28;20038;-72
2023/06/05 06:06:41;;;;;;;8.82;2.63;;;14.70;99.90;;;;;;5001061;28;20129;-73
2023/06/05 06:09:10;;;;;;;6.95;2.22;;;14.80;99.90;;;;;;5001025;28;20133;-72
2023/06/05 06:11:38;;;;;;;5.57;2.30;;;14.80;99.90;;;;;;5000738;28;20054;-71
2023/06/05 06:14:04;;;;;;;6.85;2.50;;;14.90;99.90;;;;;;4996781;28;20124;-71
2023/06/05 06:16:29;;;;;;;6.82;2.78;;;15.10;99.90;;;;;;4999754;28;20449;-73
2023/06/05 06:18:55;;;;;;;4.18;2.40;;;15.20;99.90;;;;;;4999384;28;20034;-72
2023/06/05 06:21:21;;;;;;;6.95;2.13;;;15.40;99.90;;;;;;4998303;28;20046;-70
2023/06/05 06:23:47;;;;;;;5.88;2.70;;;15.50;99.90;;;;;;5002236;28;20045;-71
2023/06/05 06:26:14;;;;;;;6.75;2.83;;;15.70;99.90;;;;;;5002614;28;20502;-70
2023/06/05 06:28:40;;;;;;;5.63;2.22;;;15.80;99.90;;;;;;5002960;28;20073;-72
2023/06/05 06:31:06;;;;;;;4.78;2.30;;;16.10;99.90;;;;;;5004004;28;20054;-74
2023/06/05 06:33:31;;;;;;;5.57;3.08;;;16.40;99.90;;;;;;5004055;28;20112;-72
2023/06/05 06:36:00;;;;;;;4.53;2.50;;;16.50;99.90;;;;;;4997235;28;20046;-71
2023/06/05 06:38:31;;;;;;;2.90;1.83;;;17.10;99.90;;;;;;4998377;28;20069;-71
2023/06/05 06:40:57;;;;;;;8.10;1.77;;;17.90;99.70;;;;;;5002282;28;20045;-72
2023/06/05 06:43:25;;;;;;;4.90;2.13;;;18.60;98.70;;;;;;5002307;28;20593;-73
2023/06/05 06:45:52;;;;;;;3.35;2.08;;;19.00;97.50;;;;;;5001052;28;20129;-70
2023/06/05 06:48:18;;;;;;;6.38;2.38;;;19.50;96.90;;;;;;5003396;28;20030;-72
2023/06/05 06:50:44;;;;;;;3.63;1.65;;;20.30;95.90;;;;;;4998092;28;20046;-72
2023/06/05 06:53:10;;;;;;;2.42;1.88;;;21.10;94.60;;;;;;4999625;28;20522;-72
2023/06/05 06:55:36;;;;;;;7.05;2.67;;;21.60;93.10;;;;;;5002373;28;20030;-71
2023/06/05 06:58:02;;;;;;;5.40;2.08;;;22.00;92.80;;;;;;5003539;28;20121;-73
2023/06/05 07:00:27;;;;;;;5.53;2.13;;;22.00;92.20;;;;;;5005590;28;20048;-72
2023/06/05 07:02:53;;;;;;;6.00;2.70;;;22.10;91.70;;;;;;5006945;28;20038;-73
2023/06/05 07:05:20;;;;;;;3.92;2.55;;;22.20;91.20;;;;;;5007763;28;20034;-71
2023/06/05 07:07:45;;;;;;;3.58;2.28;;;22.40;91.60;;;;;;5003547;28;20038;-71
2023/06/05 07:10:11;;;;;;;4.63;2.10;;;22.60;91.60;;;;;;5007190;28;20052;-72
2023/06/05 07:12:37;;;;;;;4.57;1.90;;;22.80;90.50;;;;;;5004316;28;20030;-71
2023/06/05 07:15:03;;;;;;;4.65;2.25;;;23.50;90.40;;;;;;5005763;28;20498;-73
2023/06/05 07:17:30;;;;;;;3.88;2.03;;;23.70;88.10;;;;;;5006209;28;20128;-70
2023/06/05 07:19:56;;;;;;;2.88;2.17;;;23.50;86.40;;;;;;5006850;28;20371;-73
2023/06/05 07:22:24;;;;;;;4.75;2.20;;;23.20;88.20;;;;;;5009756;28;20042;-71
2023/06/05 07:24:50;;;;;;;5.35;2.25;;;23.40;87.00;;;;;;5009932;28;20166;-71
2023/06/05 07:27:16;;;;;;;6.00;2.55;;;23.80;86.30;;;;;;5010564;28;20248;-73
2023/06/05 07:29:42;;;;;;;4.68;2.30;;;23.70;87.40;;;;;;5005975;28;20193;-71
2023/06/05 07:32:08;;;;;;;4.10;2.20;;;24.10;85.80;;;;;;5007045;28;20037;-71
2023/06/05 07:34:37;;;;;;;4.13;2.15;;;24.40;85.50;;;;;;5007976;28;20034;-72
2023/06/05 07:37:02;;;;;;;4.93;3.03;;;24.70;85.00;;;;;;5007067;28;20129;-71
2023/06/05 07:39:28;;;;;;;4.35;2.20;;;24.60;83.90;;;;;;5006973;28;20136;-71
2023/06/05 07:41:54;;;;;;;6.60;2.58;;;25.00;84.40;;;;;;5004208;28;20348;-71
2023/06/05 07:44:21;;;;;;;4.80;2.47;;;25.20;82.90;;;;;;5003624;28;20033;-72
2023/06/05 07:46:47;;;;;;;6.00;2.70;;;25.30;82.80;;;;;;5001216;28;20383;-72
2023/06/05 07:49:16;;;;;;;5.43;2.78;;;25.80;81.70;;;;;;5006642;28;20041;-71
2023/06/05 07:51:48;;;;;;;2.90;2.40;;;25.40;80.90;;;;;;5002043;28;20428;-72
2023/06/05 07:54:15;;;;;;;4.28;2.70;;;26.00;81.70;;;;;;5002520;28;20041;-72
2023/06/05 07:56:41;;;;;;;5.60;3.03;;;25.80;80.60;;;;;;5005131;28;20080;-72
2023/06/05 07:59:07;;;;;;;6.10;3.08;;;26.10;80.00;;;;;;5003794;28;20038;-72
2023/06/05 08:01:36;;;;;;;4.97;2.50;;;25.50;80.70;;;;;;5006230;28;20041;-74
2023/06/05 08:04:06;;;;;;;4.50;2.40;;;25.80;81.30;;;;;;5006693;28;20034;-72
2023/06/05 08:06:32;;;;;;;6.63;1.88;;;25.70;79.90;;;;;;5002507;28;20069;-71
2023/06/05 08:09:09;;;;;;;3.70;2.20;;;25.40;81.00;;;;;;5000432;28;20371;-72
2023/06/05 08:11:38;;;;;;;3.28;1.88;;;25.40;79.90;;;;;;5003920;28;20041;-71
2023/06/05 08:14:06;;;;;;;5.05;1.45;;;24.90;79.90;;;;;;5002665;28;20177;-72
2023/06/05 08:16:35;;;;;;;2.95;1.50;;;24.40;80.90;;;;;;5000370;28;20030;-71
2023/06/05 08:19:01;;;;;;;2.67;1.48;;;23.70;82.50;;;;;;5005051;28;20502;-71
2023/06/05 08:21:27;;;;;;;2.97;1.27;;;22.90;83.30;;;;;;5013555;28;20038;-70
2023/06/05 08:23:53;;;;;;;2.72;1.30;;;22.20;84.60;;;;;;5009549;28;20040;-71
2023/06/05 08:26:19;;;;;;;2.65;1.33;;;21.80;86.00;;;;;;5004936;28;20038;-72
2023/06/05 08:28:45;;;;;;;2.17;1.15;;;21.30;87.40;;;;;;5002862;28;20030;-71
2023/06/05 08:31:11;;;;;;;3.40;1.73;;;21.20;88.70;;;;;;5002378;28;20050;-73
2023/06/05 08:33:38;;;;;;;2.40;1.25;;;21.10;88.20;;;;;;5004352;28;20056;-71
2023/06/05 08:36:05;;;;;;;2.75;1.10;;;20.90;90.00;;;;;;5004314;28;20046;-71
2023/06/05 08:38:31;;;;;;;2.15;1.10;;;21.00;90.00;;;;;;5004156;28;20030;-72
2023/06/05 08:41:05;;;;;;;3.90;1.35;;;20.80;90.20;;;;;;5001987;28;20116;-71
2023/06/05 08:43:31;;;;;;;2.13;0.90;;;20.80;90.40;;;;;;4997020;28;20040;-70
2023/06/05 08:45:57;;;;;;;2.70;1.40;;;20.70;90.80;;;;;;5003112;28;20038;-71
2023/06/05 08:48:24;;;;;;;2.47;1.00;;;20.80;90.50;;;;;;5002528;28;20175;-71
2023/06/05 08:50:51;;;;;;;3.47;1.52;;;20.80;90.90;;;;;;5002758;28;20121;-70
2023/06/05 08:53:17;;;;;;;4.63;1.67;;;20.70;90.70;;;;;;5003772;28;20060;-71
2023/06/05 08:55:47;;;;;;;5.72;1.05;;;20.70;90.80;;;;;;5004462;28;20124;-73
2023/06/05 08:58:14;;;;;;;2.13;1.08;;;20.60;90.80;;;;;;4996866;28;20071;-71
2023/06/05 09:00:40;;;;;;;2.55;1.33;;;20.30;90.90;;;;;;4999398;28;20049;-71
2023/06/05 09:03:13;;;;;;;6.35;1.60;;;20.50;91.20;;;;;;5003581;28;20045;-71
2023/06/05 09:05:38;;;;;;;3.53;1.02;;;20.40;91.20;;;;;;5005363;28;20095;-73
2023/06/05 09:08:04;;;;;;;2.30;1.30;;;20.50;91.50;;;;;;5003642;28;20046;-72
2023/06/05 09:10:30;;;;;;;4.40;1.88;;;20.60;91.30;;;;;;5005172;28;20550;-72
2023/06/05 09:13:03;;;;;;;2.50;1.27;;;20.60;91.00;;;;;;5002884;28;20117;-71
2023/06/05 09:15:31;;;;;;;4.70;1.88;;;20.60;91.30;;;;;;5008016;28;20033;-71
2023/06/05 09:18:15;;;;;;;1.90;1.20;;;20.70;91.30;;;;;;5012971;28;20026;-72
2023/06/05 09:20:45;;;;;;;3.03;1.42;;;20.80;91.30;;;;;;5005056;28;20045;-73
2023/06/05 09:23:27;;;;;;;3.67;1.55;;;20.90;91.50;;;;;;5002120;28;20029;-71
2023/06/05 09:26:03;;;;;;;7.30;1.77;;;20.90;91.20;;;;;;5001927;28;20034;-71
2023/06/05 09:28:29;;;;;;;3.15;1.60;;;20.80;91.10;;;;;;5002609;28;20060;-71
2023/06/05 09:30:58;;;;;;;3.63;1.52;;;21.00;91.60;;;;;;5002939;28;20486;-71
2023/06/05 09:33:25;;;;;;;2.78;1.40;;;21.00;91.10;;;;;;5003299;28;20053;-72
2023/06/05 09:36:10;;;;;;;4.20;1.58;;;20.90;91.20;;;;;;5004459;28;20037;-72
2023/06/05 09:38:37;;;;;;;5.78;1.50;;;20.90;91.30;;;;;;5003433;28;20061;-70
2023/06/05 09:41:07;;;;;;;3.10;1.85;;;20.90;91.40;;;;;;5022542;28;20122;-71
2023/06/05 09:43:33;;;;;;;4.45;1.40;;;20.90;91.40;;;;;;5002393;28;20528;-71
2023/06/05 09:46:05;;;;;;;3.50;1.60;;;20.90;91.70;;;;;;5004521;28;20109;-72
2023/06/05 09:48:32;;;;;;;15.00;1.80;;;20.90;91.50;;;;;;5003192;28;20064;-71
2023/06/05 09:51:09;;;;;;;4.50;1.50;;;21.00;91.50;;;;;;5001670;28;20113;-72
2023/06/05 09:53:40;;;;;;;2.67;1.58;;;20.80;91.40;;;;;;5000170;28;20474;-71
2023/06/05 09:56:07;;;;;;;2.97;1.70;;;20.80;91.60;;;;;;5004500;28;20124;-72
2023/06/05 09:58:32;;;;;;;5.05;1.75;;;20.70;91.40;;;;;;5002145;28;20454;-71
2023/06/05 10:01:00;;;;;;;2.95;1.30;;;20.60;91.40;;;;;;4997047;28;20053;-72
2023/06/05 10:03:27;;;;;;;3.38;1.50;;;20.60;92.20;;;;;;5003845;28;20049;-71
2023/06/05 10:05:54;;;;;;;2.42;1.20;;;20.70;91.90;;;;;;5000799;28;20042;-72
2023/06/05 10:08:19;;;;;;;3.60;1.17;;;20.80;92.10;;;;;;5000870;28;20113;-71
2023/06/05 10:10:46;;;;;;;3.33;1.30;;;20.90;92.00;;;;;;4999727;28;20145;-72
2023/06/05 10:13:12;;;;;;;3.88;1.42;;;20.90;92.20;;;;;;5002671;28;20036;-72
2023/06/05 10:15:40;;;;;;;3.83;1.50;;;21.00;91.60;;;;;;5005585;28;20105;-71
2023/06/05 10:18:06;;;;;;;6.13;1.65;;;21.00;91.70;;;;;;5007407;28;20076;-72
2023/06/05 10:20:35;;;;;;;2.75;1.33;;;20.90;91.70;;;;;;5000401;28;20042;-72
2023/06/05 10:23:02;;;;;;;3.75;1.10;;;21.00;92.20;;;;;;4999533;28;20038;-72
2023/06/05 10:25:28;;;;;;;5.60;1.60;;;21.00;91.80;;;;;;5001738;28;20065;-71
2023/06/05 10:28:16;;;;;;;2.10;1.25;;;21.00;91.90;;;;;;5002470;28;20042;-72
2023/06/05 10:31:04;;;;;;;4.20;1.40;;;21.10;92.00;;;;;;5004078;28;20057;-71
2023/06/05 10:34:14;;;;;;;3.90;1.85;;;21.10;92.20;;;;;;5006629;28;20498;-71
2023/06/05 10:37:01;;;;;;;1.95;0.90;;;21.00;91.70;;;;;;4973834;28;20042;-72
2023/06/05 10:39:29;;;;;;;2.67;1.58;;;21.10;92.40;;;;;;4987856;28;20043;-72
2023/06/05 10:41:55;;;;;;;4.28;1.50;;;21.20;92.40;;;;;;4993072;28;20049;-71
2023/06/05 10:44:39;;;;;;;2.88;1.45;;;21.30;92.50;;;;;;5003553;28;20030;-72
2023/06/05 10:47:37;;;;;;;3.30;1.23;;;21.30;92.30;;;;;;5002399;28;20045;-72
2023/06/05 10:50:25;;;;;;;3.20;1.30;;;21.20;92.20;;;;;;4999849;28;20097;-71
2023/06/05 10:52:52;;;;;;;2.92;1.45;;;21.10;92.50;;;;;;5001328;28;20088;-72
2023/06/05 10:55:20;;;;;;;2.67;1.17;;;21.20;92.50;;;;;;5005811;28;20034;-72
2023/06/05 10:58:00;;;;;;;6.47;1.33;;;21.20;92.50;;;;;;5006927;28;20026;-75
2023/06/05 11:00:29;;;;;;;3.00;1.50;;;21.20;92.60;;;;;;5005675;28;20045;-72
2023/06/05 11:02:54;;;;;;;2.35;1.05;;;21.20;92.20;;;;;;5001759;28;20053;-72
2023/06/05 11:05:21;;;;;;;3.05;1.02;;;21.00;92.30;;;;;;5006058;28;20391;-72
2023/06/05 11:07:46;;;;;;;2.40;1.10;;;21.00;92.50;;;;;;5004944;28;20038;-73
2023/06/05 11:10:18;;;;;;;3.80;1.00;;;20.90;92.50;;;;;;5004090;28;20025;-71
2023/06/05 11:12:43;;;;;;;2.53;1.17;;;20.90;92.60;;;;;;5008238;28;20048;-71
2023/06/05 11:15:33;;;;;;;4.72;1.27;;;20.80;92.40;;;;;;5007925;28;20382;-71
2023/06/05 11:18:29;;;;;;;2.22;1.05;;;20.60;92.80;;;;;;5006455;28;20030;-72
2023/06/05 11:20:55;;;;;;;2.40;1.15;;;20.60;92.80;;;;;;5004008;28;20053;-71
2023/06/05 11:23:21;;;;;;;1.55;1.08;;;20.60;92.70;;;;;;5005903;28;20518;-71
2023/06/05 11:25:50;;;;;;;1.60;0.90;;;20.60;92.90;;;;;;5005785;28;20136;-72
2023/06/05 11:28:39;;;;;;;2.88;1.10;;;20.60;92.90;;;;;;5002565;28;20095;-70
2023/06/05 11:31:05;;;;;;;3.00;1.17;;;20.60;92.90;;;;;;5004537;28;20053;-69
2023/06/05 11:33:31;;;;;;;3.08;0.80;;;20.70;92.80;;;;;;5006432;28;20378;-73
2023/06/05 11:36:05;;;;;;;3.83;1.10;;;20.80;92.60;;;;;;5003844;28;20489;-70
2023/06/05 11:38:31;;;;;;;3.53;1.00;;;20.80;92.70;;;;;;5001132;28;20042;-71
2023/06/05 11:40:57;;;;;;;5.97;1.02;;;20.80;92.40;;;;;;5005667;28;20057;-70
2023/06/05 11:43:22;;;;;;;2.40;1.00;;;20.70;92.40;;;;;;5006863;28;20026;-71
2023/06/05 11:45:56;;;;;;;1.33;0.70;;;20.70;92.80;;;;;;5006609;28;20026;-71
2023/06/05 11:48:22;;;;;;;1.48;0.70;;;20.70;92.80;;;;;;5003041;28;20132;-68
2023/06/05 11:50:59;;;;;;;2.63;1.02;;;20.70;92.90;;;;;;5004746;28;20037;-72
2023/06/05 11:53:29;;;;;;;1.50;0.80;;;20.60;92.70;;;;;;5005805;28;20037;-70
2023/06/05 11:58:32;;;;;;;2.85;0.82;;;20.60;93.30;;;;;;5005519;28;20391;-73
2023/06/05 12:01:14;;;;;;;3.22;1.10;;;20.60;93.20;;;;;;5003954;28;20034;-70
2023/06/05 12:03:41;;;;;;;3.83;1.65;;;20.60;93.00;;;;;;5003086;28;20037;-70
2023/06/05 12:06:07;;;;;;;1.88;1.00;;;20.60;93.10;;;;;;5003761;28;20361;-74
2023/06/05 12:08:34;;;;;;;3.28;1.20;;;20.50;92.90;;;;;;5007215;28;20077;-70
2023/06/05 12:11:02;;;;;;;2.25;1.23;;;20.60;93.10;;;;;;5010966;28;20406;-70
2023/06/05 12:13:47;;;;;;;5.57;1.45;;;20.60;93.00;;;;;;5006444;28;20030;-71
2023/06/05 12:16:13;;;;;;;3.70;2.03;;;20.60;93.00;;;;;;5005698;28;20030;-73
2023/06/05 12:18:39;;;;;;;2.08;1.23;;;20.60;93.10;;;;;;5002839;28;20057;-73
2023/06/05 12:21:06;;;;;;;3.30;1.40;;;20.60;93.30;;;;;;5002746;28;20076;-70
2023/06/05 12:23:32;;;;;;;3.05;1.23;;;20.60;93.50;;;;;;5005258;28;20038;-69
2023/06/05 12:26:03;;;;;;;1.48;0.75;;;20.70;93.50;;;;;;5004357;28;20026;-71
2023/06/05 12:28:29;;;;;;;3.05;1.20;;;20.80;93.30;;;;;;5001416;28;20040;-70
2023/06/05 12:30:55;;;;;;;2.33;1.27;;;20.80;93.20;;;;;;5003391;28;20499;-71
2023/06/05 12:33:24;;;;;;;3.53;1.27;;;20.80;93.20;;;;;;5002805;28;20054;-71
2023/06/05 12:36:03;;;;;;;2.75;1.00;;;20.80;93.00;;;;;;5004252;28;20050;-70
2023/06/05 12:38:28;;;;;;;4.22;1.15;;;20.80;93.30;;;;;;5003529;28;20038;-69
2023/06/05 12:40:54;;;;;;;11.70;1.40;;;20.70;93.00;;;;;;5004168;28;20036;-71
2023/06/05 12:43:20;;;;;;;2.20;1.02;;;20.70;93.50;;;;;;5002768;28;20037;-70
2023/06/05 12:45:45;;;;;;;4.90;1.23;;;20.80;93.00;;;;;;5004445;28;20034;-70
2023/06/05 12:48:12;;;;;;;3.42;1.17;;;20.70;93.10;;;;;;5002668;28;20040;-70
2023/06/05 12:50:41;;;;;;;5.07;1.75;;;20.60;93.10;;;;;;4999065;28;20033;-72
2023/06/05 12:53:08;;;;;;;2.17;1.15;;;20.70;93.50;;;;;;5000039;28;20577;-72